sensor_id;sensor_type;location;lat;lon;timestamp;temperature;humidity
7117;DHT22;3600;48.568;7.870;2023-02-01T00:00:15;5.00;99.90
7117;DHT22;3600;48.568;7.870;2023-02-01T00:02:43;4.90;99.90
7117;DHT22;3600;48.568;7.870;2023-02-01T00:05:10;4.90;99.90
7117;DHT22;3600;48.568;7.870;2023-02-01T00:07:37;4.80;99.90
7117;DHT22;3600;48.568;7.870;2023-02-01T00:10:05;4.90;99.90
7117;DHT22;3600;48.568;7.870;2023-02-01T00:12:33;4.90;99.90
7117;DHT22;3600;48.568;7.870;2023-02-01T00:15:00;4.80;99.90
7117;DHT22;3600;48.568;7.870;2023-02-01T00:17:26;4.90;99.90
7117;DHT22;3600;48.568;7.870;2023-02-01T00:19:53;4.90;99.90
7117;DHT22;3600;48.568;7.870;2023-02-01T00:22:20;4.80;99.90
7117;DHT22;3600;48.568;7.870;2023-02-01T00:24:47;4.80;99.90
7117;DHT22;3600;48.568;7.870;2023-02-01T00:27:13;4.80;99.90
7117;DHT22;3600;48.568;7.870;2023-02-01T00:29:44;4.80;99.90
7117;DHT22;3600;48.568;7.870;2023-02-01T00:32:11;4.80;99.90
7117;DHT22;3600;48.568;7.870;2023-02-01T00:34:38;4.80;99.90
7117;DHT22;3600;48.568;7.870;2023-02-01T00:37:05;4.80;99.90
7117;DHT22;3600;48.568;7.870;2023-02-01T00:39:32;4.70;99.90
7117;DHT22;3600;48.568;7.870;2023-02-01T00:42:00;4.70;99.90
7117;DHT22;3600;48.568;7.870;2023-02-01T00:44:27;4.70;99.90
7117;DHT22;3600;48.568;7.870;2023-02-01T00:46:54;4.70;99.90
7117;DHT22;3600;48.568;7.870;2023-02-01T00:49:21;4.70;99.90
7117;DHT22;3600;48.568;7.870;2023-02-01T00:51:48;4.70;99.90
7117;DHT22;3600;48.568;7.870;2023-02-01T00:54:15;4.70;99.90
7117;DHT22;3600;48.568;7.870;2023-02-01T00:56:42;4.70;99.90
7117;DHT22;3600;48.568;7.870;2023-02-01T00:59:11;4.80;99.90
7117;DHT22;3600;48.568;7.870;2023-02-01T01:01:38;4.70;99.90
7117;DHT22;3600;48.568;7.870;2023-02-01T01:04:05;4.70;99.90
7117;DHT22;3600;48.568;7.870;2023-02-01T01:06:34;4.80;99.90
7117;DHT22;3600;48.568;7.870;2023-02-01T01:09:03;4.80;99.90
7117;DHT22;3600;48.568;7.870;2023-02-01T01:11:32;4.80;99.90
7117;DHT22;3600;48.568;7.870;2023-02-01T01:14:00;4.80;99.90
7117;DHT22;3600;48.568;7.870;2023-02-01T01:16:29;4.80;99.90
7117;DHT22;3600;48.568;7.870;2023-02-01T01:18:57;4.80;99.90
7117;DHT22;3600;48.568;7.870;2023-02-01T01:21:24;4.80;99.90
7117;DHT22;3600;48.568;7.870;2023-02-01T01:23:51;4.80;99.90
7117;DHT22;3600;48.568;7.870;2023-02-01T01:26:24;4.80;99.90
7117;DHT22;3600;48.568;7.870;2023-02-01T01:28:51;4.80;99.90
7117;DHT22;3600;48.568;7.870;2023-02-01T01:31:19;4.80;99.90
7117;DHT22;3600;48.568;7.870;2023-02-01T01:33:50;4.80;99.90
7117;DHT22;3600;48.568;7.870;2023-02-01T01:36:18;4.80;99.90
7117;DHT22;3600;48.568;7.870;2023-02-01T01:38:44;4.80;99.90
7117;DHT22;3600;48.568;7.870;2023-02-01T01:41:19;4.80;99.90
7117;DHT22;3600;48.568;7.870;2023-02-01T01:43:53;4.80;99.90
7117;DHT22;3600;48.568;7.870;2023-02-01T01:46:23;4.80;99.90
7117;DHT22;3600;48.568;7.870;2023-02-01T01:49:00;4.80;99.90
7117;DHT22;3600;48.568;7.870;2023-02-01T01:51:28;4.80;99.90
7117;DHT22;3600;48.568;7.870;2023-02-01T01:54:17;4.70;99.90
7117;DHT22;3600;48.568;7.870;2023-02-01T01:56:49;4.70;99.90
7117;DHT22;3600;48.568;7.870;2023-02-01T01:59:17;4.70;99.90
7117;DHT22;3600;48.568;7.870;2023-02-01T02:01:44;4.70;99.90
7117;DHT22;3600;48.568;7.870;2023-02-01T02:04:11;4.70;99.90
7117;DHT22;3600;48.568;7.870;2023-02-01T02:06:48;4.70;99.90
7117;DHT22;3600;48.568;7.870;2023-02-01T02:09:16;4.70;99.90
7117;DHT22;3600;48.568;7.870;2023-02-01T02:11:43;4.70;99.90
7117;DHT22;3600;48.568;7.870;2023-02-01T02:14:11;4.70;99.90
7117;DHT22;3600;48.568;7.870;2023-02-01T02:36:23;4.80;99.90
7117;DHT22;3600;48.568;7.870;2023-02-01T02:39:13;4.70;99.90
7117;DHT22;3600;48.568;7.870;2023-02-01T02:44:50;4.80;99.90
7117;DHT22;3600;48.568;7.870;2023-02-01T02:48:05;4.80;99.90
7117;DHT22;3600;48.568;7.870;2023-02-01T02:50:42;4.80;99.90
7117;DHT22;3600;48.568;7.870;2023-02-01T02:53:35;4.80;99.90
7117;DHT22;3600;48.568;7.870;2023-02-01T02:56:23;4.80;99.90
7117;DHT22;3600;48.568;7.870;2023-02-01T02:59:12;4.80;99.90
7117;DHT22;3600;48.568;7.870;2023-02-01T03:01:58;4.80;99.90
7117;DHT22;3600;48.568;7.870;2023-02-01T03:04:44;4.80;99.90
7117;DHT22;3600;48.568;7.870;2023-02-01T03:10:37;4.80;99.90
7117;DHT22;3600;48.568;7.870;2023-02-01T03:13:14;4.80;99.90
7117;DHT22;3600;48.568;7.870;2023-02-01T03:15:51;4.80;99.90
7117;DHT22;3600;48.568;7.870;2023-02-01T03:20:59;4.80;99.90
7117;DHT22;3600;48.568;7.870;2023-02-01T03:23:31;4.80;99.90
7117;DHT22;3600;48.568;7.870;2023-02-01T03:26:02;4.80;99.90
7117;DHT22;3600;48.568;7.870;2023-02-01T03:28:32;4.80;99.90
7117;DHT22;3600;48.568;7.870;2023-02-01T03:31:01;4.80;99.90
7117;DHT22;3600;48.568;7.870;2023-02-01T03:33:28;4.80;99.90
7117;DHT22;3600;48.568;7.870;2023-02-01T03:46:49;4.80;99.90
7117;DHT22;3600;48.568;7.870;2023-02-01T03:49:24;4.80;99.90
7117;DHT22;3600;48.568;7.870;2023-02-01T03:51:52;4.80;99.90
7117;DHT22;3600;48.568;7.870;2023-02-01T03:54:19;4.80;99.90
7117;DHT22;3600;48.568;7.870;2023-02-01T03:56:47;4.90;99.90
7117;DHT22;3600;48.568;7.870;2023-02-01T03:59:14;4.90;99.90
7117;DHT22;3600;48.568;7.870;2023-02-01T04:01:41;4.80;99.90
7117;DHT22;3600;48.568;7.870;2023-02-01T04:04:09;4.80;99.90
7117;DHT22;3600;48.568;7.870;2023-02-01T04:06:35;4.90;99.90
7117;DHT22;3600;48.568;7.870;2023-02-01T04:09:02;4.90;99.90
7117;DHT22;3600;48.568;7.870;2023-02-01T04:11:29;4.90;99.90
7117;DHT22;3600;48.568;7.870;2023-02-01T04:13:56;4.90;99.90
7117;DHT22;3600;48.568;7.870;2023-02-01T04:16:22;4.90;99.90
7117;DHT22;3600;48.568;7.870;2023-02-01T04:18:49;4.90;99.90
7117;DHT22;3600;48.568;7.870;2023-02-01T04:21:16;4.90;99.90
7117;DHT22;3600;48.568;7.870;2023-02-01T04:23:42;4.90;99.90
7117;DHT22;3600;48.568;7.870;2023-02-01T04:26:09;4.90;99.90
7117;DHT22;3600;48.568;7.870;2023-02-01T04:28:36;4.90;99.90
7117;DHT22;3600;48.568;7.870;2023-02-01T04:31:03;4.90;99.90
7117;DHT22;3600;48.568;7.870;2023-02-01T04:33:30;4.90;99.90
7117;DHT22;3600;48.568;7.870;2023-02-01T04:35:56;4.80;99.90
7117;DHT22;3600;48.568;7.870;2023-02-01T04:38:23;4.80;99.90
7117;DHT22;3600;48.568;7.870;2023-02-01T04:40:50;4.80;99.90
7117;DHT22;3600;48.568;7.870;2023-02-01T04:43:17;4.80;99.90
7117;DHT22;3600;48.568;7.870;2023-02-01T04:45:48;4.80;99.90
7117;DHT22;3600;48.568;7.870;2023-02-01T04:48:17;4.80;99.90
7117;DHT22;3600;48.568;7.870;2023-02-01T04:50:45;4.80;99.90
7117;DHT22;3600;48.568;7.870;2023-02-01T04:53:17;4.80;99.90
7117;DHT22;3600;48.568;7.870;2023-02-01T04:55:44;4.70;99.90
7117;DHT22;3600;48.568;7.870;2023-02-01T04:58:11;4.80;99.90
7117;DHT22;3600;48.568;7.870;2023-02-01T05:00:38;4.70;99.90
7117;DHT22;3600;48.568;7.870;2023-02-01T05:03:04;4.70;99.90
7117;DHT22;3600;48.568;7.870;2023-02-01T05:05:31;4.70;99.90
7117;DHT22;3600;48.568;7.870;2023-02-01T05:07:58;4.70;99.90
7117;DHT22;3600;48.568;7.870;2023-02-01T05:10:25;4.70;99.90
7117;DHT22;3600;48.568;7.870;2023-02-01T05:12:51;4.70;99.90
7117;DHT22;3600;48.568;7.870;2023-02-01T05:15:37;4.70;99.90
7117;DHT22;3600;48.568;7.870;2023-02-01T05:18:04;4.70;99.90
7117;DHT22;3600;48.568;7.870;2023-02-01T05:20:30;4.70;99.90
7117;DHT22;3600;48.568;7.870;2023-02-01T05:22:57;4.70;99.90
7117;DHT22;3600;48.568;7.870;2023-02-01T05:25:24;4.70;99.90
7117;DHT22;3600;48.568;7.870;2023-02-01T05:27:51;4.70;99.90
7117;DHT22;3600;48.568;7.870;2023-02-01T05:30:17;4.70;99.90
7117;DHT22;3600;48.568;7.870;2023-02-01T05:32:44;4.80;99.90
7117;DHT22;3600;48.568;7.870;2023-02-01T05:35:11;4.80;99.90
7117;DHT22;3600;48.568;7.870;2023-02-01T05:37:37;4.80;99.90
7117;DHT22;3600;48.568;7.870;2023-02-01T05:40:04;4.80;99.90
7117;DHT22;3600;48.568;7.870;2023-02-01T05:42:31;4.70;99.90
7117;DHT22;3600;48.568;7.870;2023-02-01T05:44:58;4.80;99.90
7117;DHT22;3600;48.568;7.870;2023-02-01T05:47:25;4.80;99.90
7117;DHT22;3600;48.568;7.870;2023-02-01T05:49:52;4.80;99.90
7117;DHT22;3600;48.568;7.870;2023-02-01T05:52:19;4.80;99.90
7117;DHT22;3600;48.568;7.870;2023-02-01T05:54:46;4.80;99.90
7117;DHT22;3600;48.568;7.870;2023-02-01T05:57:13;4.80;99.90
7117;DHT22;3600;48.568;7.870;2023-02-01T05:59:40;4.80;99.90
7117;DHT22;3600;48.568;7.870;2023-02-01T06:02:08;4.90;99.90
7117;DHT22;3600;48.568;7.870;2023-02-01T06:04:36;4.90;99.90
7117;DHT22;3600;48.568;7.870;2023-02-01T06:07:04;4.90;99.90
7117;DHT22;3600;48.568;7.870;2023-02-01T06:09:32;4.90;99.90
7117;DHT22;3600;48.568;7.870;2023-02-01T06:11:58;5.00;99.90
7117;DHT22;3600;48.568;7.870;2023-02-01T06:14:26;4.90;99.90
7117;DHT22;3600;48.568;7.870;2023-02-01T06:16:53;4.90;99.90
7117;DHT22;3600;48.568;7.870;2023-02-01T06:19:20;4.90;99.90
7117;DHT22;3600;48.568;7.870;2023-02-01T06:21:46;4.80;99.90
7117;DHT22;3600;48.568;7.870;2023-02-01T06:24:13;4.80;99.90
7117;DHT22;3600;48.568;7.870;2023-02-01T06:26:40;4.70;99.90
7117;DHT22;3600;48.568;7.870;2023-02-01T06:29:10;4.70;99.90
7117;DHT22;3600;48.568;7.870;2023-02-01T06:31:37;4.70;99.90
7117;DHT22;3600;48.568;7.870;2023-02-01T06:34:04;4.70;99.90
7117;DHT22;3600;48.568;7.870;2023-02-01T06:36:30;4.70;99.90
7117;DHT22;3600;48.568;7.870;2023-02-01T06:38:57;4.70;99.90
7117;DHT22;3600;48.568;7.870;2023-02-01T06:41:26;4.70;99.90
7117;DHT22;3600;48.568;7.870;2023-02-01T06:43:55;4.70;99.90
7117;DHT22;3600;48.568;7.870;2023-02-01T06:46:21;4.70;99.90
7117;DHT22;3600;48.568;7.870;2023-02-01T06:48:48;4.70;99.90
7117;DHT22;3600;48.568;7.870;2023-02-01T06:51:26;4.70;99.90
7117;DHT22;3600;48.568;7.870;2023-02-01T06:53:53;4.70;99.90
7117;DHT22;3600;48.568;7.870;2023-02-01T06:56:19;4.70;99.90
7117;DHT22;3600;48.568;7.870;2023-02-01T06:58:48;4.70;99.90
7117;DHT22;3600;48.568;7.870;2023-02-01T07:01:15;4.60;99.90
7117;DHT22;3600;48.568;7.870;2023-02-01T07:03:43;4.60;99.90
7117;DHT22;3600;48.568;7.870;2023-02-01T07:06:13;4.60;99.90
7117;DHT22;3600;48.568;7.870;2023-02-01T07:08:39;4.60;99.90
7117;DHT22;3600;48.568;7.870;2023-02-01T07:11:08;4.50;99.90
7117;DHT22;3600;48.568;7.870;2023-02-01T07:13:36;4.60;99.90
7117;DHT22;3600;48.568;7.870;2023-02-01T07:16:05;4.50;99.90
7117;DHT22;3600;48.568;7.870;2023-02-01T07:18:32;4.50;99.90
7117;DHT22;3600;48.568;7.870;2023-02-01T07:20:59;4.50;99.90
7117;DHT22;3600;48.568;7.870;2023-02-01T07:23:27;4.60;99.90
7117;DHT22;3600;48.568;7.870;2023-02-01T07:26:02;4.50;99.90
7117;DHT22;3600;48.568;7.870;2023-02-01T07:28:32;4.50;99.90
7117;DHT22;3600;48.568;7.870;2023-02-01T07:31:07;4.50;99.90
7117;DHT22;3600;48.568;7.870;2023-02-01T07:33:34;4.50;99.90
7117;DHT22;3600;48.568;7.870;2023-02-01T07:36:04;4.50;99.90
7117;DHT22;3600;48.568;7.870;2023-02-01T07:38:31;4.50;99.90
7117;DHT22;3600;48.568;7.870;2023-02-01T07:40:59;4.50;99.90
7117;DHT22;3600;48.568;7.870;2023-02-01T07:43:27;4.60;99.90
7117;DHT22;3600;48.568;7.870;2023-02-01T07:45:55;4.50;99.90
7117;DHT22;3600;48.568;7.870;2023-02-01T07:48:23;4.60;99.90
7117;DHT22;3600;48.568;7.870;2023-02-01T07:51:11;4.60;99.90
7117;DHT22;3600;48.568;7.870;2023-02-01T07:53:38;4.60;99.90
7117;DHT22;3600;48.568;7.870;2023-02-01T07:56:14;4.60;99.90
7117;DHT22;3600;48.568;7.870;2023-02-01T07:58:42;4.60;99.90
7117;DHT22;3600;48.568;7.870;2023-02-01T08:01:20;4.70;99.90
7117;DHT22;3600;48.568;7.870;2023-02-01T08:03:49;4.70;99.90
7117;DHT22;3600;48.568;7.870;2023-02-01T08:06:16;4.70;99.90
7117;DHT22;3600;48.568;7.870;2023-02-01T08:08:43;4.70;99.90
7117;DHT22;3600;48.568;7.870;2023-02-01T08:11:12;4.70;99.90
7117;DHT22;3600;48.568;7.870;2023-02-01T08:13:39;4.70;99.90
7117;DHT22;3600;48.568;7.870;2023-02-01T08:16:07;4.70;99.90
7117;DHT22;3600;48.568;7.870;2023-02-01T08:18:36;4.70;99.90
7117;DHT22;3600;48.568;7.870;2023-02-01T08:21:08;4.70;99.90
7117;DHT22;3600;48.568;7.870;2023-02-01T08:23:36;4.70;99.90
7117;DHT22;3600;48.568;7.870;2023-02-01T08:26:14;4.70;99.90
7117;DHT22;3600;48.568;7.870;2023-02-01T08:28:43;4.80;99.90
7117;DHT22;3600;48.568;7.870;2023-02-01T08:31:13;4.70;99.90
7117;DHT22;3600;48.568;7.870;2023-02-01T08:33:42;4.80;99.90
7117;DHT22;3600;48.568;7.870;2023-02-01T08:36:10;4.80;99.90
7117;DHT22;3600;48.568;7.870;2023-02-01T08:38:38;4.80;99.90
7117;DHT22;3600;48.568;7.870;2023-02-01T08:41:07;4.90;99.90
7117;DHT22;3600;48.568;7.870;2023-02-01T08:43:35;4.90;99.90
7117;DHT22;3600;48.568;7.870;2023-02-01T08:46:03;5.00;99.90
7117;DHT22;3600;48.568;7.870;2023-02-01T08:48:30;5.00;99.90
7117;DHT22;3600;48.568;7.870;2023-02-01T08:50:57;5.00;99.90
7117;DHT22;3600;48.568;7.870;2023-02-01T08:53:24;5.00;99.90
7117;DHT22;3600;48.568;7.870;2023-02-01T08:55:50;5.00;99.90
7117;DHT22;3600;48.568;7.870;2023-02-01T08:58:17;5.10;99.90
7117;DHT22;3600;48.568;7.870;2023-02-01T09:00:44;5.10;99.90
7117;DHT22;3600;48.568;7.870;2023-02-01T09:03:12;5.10;99.90
7117;DHT22;3600;48.568;7.870;2023-02-01T09:05:39;5.20;99.90
7117;DHT22;3600;48.568;7.870;2023-02-01T09:08:15;5.20;99.90
7117;DHT22;3600;48.568;7.870;2023-02-01T09:10:42;5.30;99.90
7117;DHT22;3600;48.568;7.870;2023-02-01T09:13:09;5.30;99.90
7117;DHT22;3600;48.568;7.870;2023-02-01T09:15:37;5.30;99.90
7117;DHT22;3600;48.568;7.870;2023-02-01T09:18:04;5.40;99.90
7117;DHT22;3600;48.568;7.870;2023-02-01T09:20:31;5.40;99.90
7117;DHT22;3600;48.568;7.870;2023-02-01T09:22:57;5.40;99.90
7117;DHT22;3600;48.568;7.870;2023-02-01T09:25:24;5.50;99.90
7117;DHT22;3600;48.568;7.870;2023-02-01T09:27:51;5.50;99.90
7117;DHT22;3600;48.568;7.870;2023-02-01T09:30:17;5.50;99.90
7117;DHT22;3600;48.568;7.870;2023-02-01T09:32:45;5.50;99.90
7117;DHT22;3600;48.568;7.870;2023-02-01T09:35:12;5.40;99.90
7117;DHT22;3600;48.568;7.870;2023-02-01T09:37:39;5.50;99.90
7117;DHT22;3600;48.568;7.870;2023-02-01T09:40:06;5.50;99.90
7117;DHT22;3600;48.568;7.870;2023-02-01T09:42:52;5.50;99.90
7117;DHT22;3600;48.568;7.870;2023-02-01T09:48:17;5.50;99.90
7117;DHT22;3600;48.568;7.870;2023-02-01T09:50:55;5.50;99.90
7117;DHT22;3600;48.568;7.870;2023-02-01T09:53:38;5.50;99.90
7117;DHT22;3600;48.568;7.870;2023-02-01T09:56:12;5.50;99.90
7117;DHT22;3600;48.568;7.870;2023-02-01T09:58:43;5.50;99.90
7117;DHT22;3600;48.568;7.870;2023-02-01T10:01:23;5.50;99.90
7117;DHT22;3600;48.568;7.870;2023-02-01T10:03:57;5.50;99.90
7117;DHT22;3600;48.568;7.870;2023-02-01T10:06:33;5.50;99.90
7117;DHT22;3600;48.568;7.870;2023-02-01T10:09:28;5.60;99.90
7117;DHT22;3600;48.568;7.870;2023-02-01T10:12:27;5.60;99.90
7117;DHT22;3600;48.568;7.870;2023-02-01T10:26:03;5.80;99.90
7117;DHT22;3600;48.568;7.870;2023-02-01T10:28:34;5.90;99.90
7117;DHT22;3600;48.568;7.870;2023-02-01T10:31:03;5.90;99.90
7117;DHT22;3600;48.568;7.870;2023-02-01T10:33:43;5.90;99.90
7117;DHT22;3600;48.568;7.870;2023-02-01T10:36:23;6.00;99.90
7117;DHT22;3600;48.568;7.870;2023-02-01T10:38:52;6.00;99.90
7117;DHT22;3600;48.568;7.870;2023-02-01T10:41:23;6.00;99.90
7117;DHT22;3600;48.568;7.870;2023-02-01T10:43:55;6.00;99.90
7117;DHT22;3600;48.568;7.870;2023-02-01T10:46:23;6.10;99.90
7117;DHT22;3600;48.568;7.870;2023-02-01T10:48:53;6.10;99.90
7117;DHT22;3600;48.568;7.870;2023-02-01T10:54:22;6.10;99.90
7117;DHT22;3600;48.568;7.870;2023-02-01T10:56:57;6.10;99.90
7117;DHT22;3600;48.568;7.870;2023-02-01T10:59:29;6.10;99.90
7117;DHT22;3600;48.568;7.870;2023-02-01T11:02:02;6.20;99.90
7117;DHT22;3600;48.568;7.870;2023-02-01T11:04:34;6.20;99.90
7117;DHT22;3600;48.568;7.870;2023-02-01T11:07:25;6.20;99.90
7117;DHT22;3600;48.568;7.870;2023-02-01T11:09:54;6.20;99.90
7117;DHT22;3600;48.568;7.870;2023-02-01T11:12:35;6.20;99.90
7117;DHT22;3600;48.568;7.870;2023-02-01T11:15:21;6.20;99.90
7117;DHT22;3600;48.568;7.870;2023-02-01T11:17:50;6.20;99.90
7117;DHT22;3600;48.568;7.870;2023-02-01T11:22:58;6.30;99.90
7117;DHT22;3600;48.568;7.870;2023-02-01T11:25:26;6.30;99.90
7117;DHT22;3600;48.568;7.870;2023-02-01T11:27:54;6.30;99.90
7117;DHT22;3600;48.568;7.870;2023-02-01T11:30:36;6.30;99.90
7117;DHT22;3600;48.568;7.870;2023-02-01T11:33:05;6.30;99.90
7117;DHT22;3600;48.568;7.870;2023-02-01T11:35:37;6.30;99.90
7117;DHT22;3600;48.568;7.870;2023-02-01T11:38:28;6.20;99.90
7117;DHT22;3600;48.568;7.870;2023-02-01T11:43:55;6.20;99.90
7117;DHT22;3600;48.568;7.870;2023-02-01T11:46:27;6.20;99.90
7117;DHT22;3600;48.568;7.870;2023-02-01T11:48:56;6.20;99.90
7117;DHT22;3600;48.568;7.870;2023-02-01T11:51:38;6.20;99.90
7117;DHT22;3600;48.568;7.870;2023-02-01T11:54:37;6.20;99.90
7117;DHT22;3600;48.568;7.870;2023-02-01T12:00:15;6.10;99.90
7117;DHT22;3600;48.568;7.870;2023-02-01T12:03:15;6.10;99.90
7117;DHT22;3600;48.568;7.870;2023-02-01T12:09:17;6.10;99.90
7117;DHT22;3600;48.568;7.870;2023-02-01T12:20:10;6.20;99.90
7117;DHT22;3600;48.568;7.870;2023-02-01T12:23:04;6.20;99.90
7117;DHT22;3600;48.568;7.870;2023-02-01T12:42:13;6.40;99.90
7117;DHT22;3600;48.568;7.870;2023-02-01T12:47:42;6.50;99.90
7117;DHT22;3600;48.568;7.870;2023-02-01T12:50:26;6.50;99.90
7117;DHT22;3600;48.568;7.870;2023-02-01T12:53:06;6.60;99.90
7117;DHT22;3600;48.568;7.870;2023-02-01T12:55:38;6.60;99.90
7117;DHT22;3600;48.568;7.870;2023-02-01T13:01:09;6.60;99.90
7117;DHT22;3600;48.568;7.870;2023-02-01T13:04:07;6.70;99.90
7117;DHT22;3600;48.568;7.870;2023-02-01T13:06:43;6.70;99.90
7117;DHT22;3600;48.568;7.870;2023-02-01T13:12:06;6.70;99.90
7117;DHT22;3600;48.568;7.870;2023-02-01T13:14:43;6.70;99.90
7117;DHT22;3600;48.568;7.870;2023-02-01T13:17:22;6.70;99.90
7117;DHT22;3600;48.568;7.870;2023-02-01T13:20:03;6.70;99.90
7117;DHT22;3600;48.568;7.870;2023-02-01T13:22:40;6.70;99.90
7117;DHT22;3600;48.568;7.870;2023-02-01T13:27:37;6.70;99.90
7117;DHT22;3600;48.568;7.870;2023-02-01T13:30:18;6.60;99.90
7117;DHT22;3600;48.568;7.870;2023-02-01T13:36:22;6.70;99.90
7117;DHT22;3600;48.568;7.870;2023-02-01T13:39:22;6.60;99.90
7117;DHT22;3600;48.568;7.870;2023-02-01T13:44:31;6.60;99.90
7117;DHT22;3600;48.568;7.870;2023-02-01T13:47:02;6.60;99.90
7117;DHT22;3600;48.568;7.870;2023-02-01T13:49:32;6.60;99.90
7117;DHT22;3600;48.568;7.870;2023-02-01T13:52:03;6.60;99.90
7117;DHT22;3600;48.568;7.870;2023-02-01T13:54:36;6.60;99.90
7117;DHT22;3600;48.568;7.870;2023-02-01T13:57:13;6.60;99.90
7117;DHT22;3600;48.568;7.870;2023-02-01T14:05:10;6.60;99.90
7117;DHT22;3600;48.568;7.870;2023-02-01T14:10:53;6.50;99.90
7117;DHT22;3600;48.568;7.870;2023-02-01T14:13:48;6.50;99.90
7117;DHT22;3600;48.568;7.870;2023-02-01T14:16:16;6.50;99.90
7117;DHT22;3600;48.568;7.870;2023-02-01T14:21:29;6.50;99.90
7117;DHT22;3600;48.568;7.870;2023-02-01T14:26:27;6.50;99.90
7117;DHT22;3600;48.568;7.870;2023-02-01T14:32:05;6.50;99.90
7117;DHT22;3600;48.568;7.870;2023-02-01T14:34:48;6.60;99.90
7117;DHT22;3600;48.568;7.870;2023-02-01T14:42:22;6.60;99.90
7117;DHT22;3600;48.568;7.870;2023-02-01T14:44:52;6.60;99.90
7117;DHT22;3600;48.568;7.870;2023-02-01T14:49:56;6.60;99.90
7117;DHT22;3600;48.568;7.870;2023-02-01T14:52:33;6.60;99.90
7117;DHT22;3600;48.568;7.870;2023-02-01T14:55:05;6.50;99.90
7117;DHT22;3600;48.568;7.870;2023-02-01T14:57:36;6.50;99.90
7117;DHT22;3600;48.568;7.870;2023-02-01T15:00:27;6.60;99.90
7117;DHT22;3600;48.568;7.870;2023-02-01T15:03:12;6.60;99.90
7117;DHT22;3600;48.568;7.870;2023-02-01T15:05:42;6.60;99.90
7117;DHT22;3600;48.568;7.870;2023-02-01T15:08:17;6.60;99.90
7117;DHT22;3600;48.568;7.870;2023-02-01T15:10:47;6.60;99.90
7117;DHT22;3600;48.568;7.870;2023-02-01T15:13:28;6.60;99.90
7117;DHT22;3600;48.568;7.870;2023-02-01T15:18:28;6.60;99.90
7117;DHT22;3600;48.568;7.870;2023-02-01T15:20:59;6.60;99.90
7117;DHT22;3600;48.568;7.870;2023-02-01T15:23:46;6.60;99.90
7117;DHT22;3600;48.568;7.870;2023-02-01T15:26:25;6.60;99.90
7117;DHT22;3600;48.568;7.870;2023-02-01T15:28:52;6.50;99.90
7117;DHT22;3600;48.568;7.870;2023-02-01T15:31:37;6.50;99.90
7117;DHT22;3600;48.568;7.870;2023-02-01T15:34:05;6.50;99.90
7117;DHT22;3600;48.568;7.870;2023-02-01T15:36:32;6.50;99.90
7117;DHT22;3600;48.568;7.870;2023-02-01T15:39:22;6.50;99.90
7117;DHT22;3600;48.568;7.870;2023-02-01T15:46:56;6.60;99.90
7117;DHT22;3600;48.568;7.870;2023-02-01T15:49:29;6.60;99.90
7117;DHT22;3600;48.568;7.870;2023-02-01T15:52:00;6.50;99.90
7117;DHT22;3600;48.568;7.870;2023-02-01T15:54:58;6.60;99.90
7117;DHT22;3600;48.568;7.870;2023-02-01T15:57:30;6.60;99.90
7117;DHT22;3600;48.568;7.870;2023-02-01T16:00:01;6.60;99.90
7117;DHT22;3600;48.568;7.870;2023-02-01T16:02:53;6.60;99.90
7117;DHT22;3600;48.568;7.870;2023-02-01T16:05:42;6.60;99.90
7117;DHT22;3600;48.568;7.870;2023-02-01T16:08:22;6.60;99.90
7117;DHT22;3600;48.568;7.870;2023-02-01T16:10:51;6.60;99.90
7117;DHT22;3600;48.568;7.870;2023-02-01T16:13:19;6.60;99.90
7117;DHT22;3600;48.568;7.870;2023-02-01T16:15:47;6.60;99.90
7117;DHT22;3600;48.568;7.870;2023-02-01T16:18:15;6.60;99.90
7117;DHT22;3600;48.568;7.870;2023-02-01T16:20:47;6.60;99.90
7117;DHT22;3600;48.568;7.870;2023-02-01T16:23:14;6.60;99.90
7117;DHT22;3600;48.568;7.870;2023-02-01T16:25:41;6.60;99.90
7117;DHT22;3600;48.568;7.870;2023-02-01T16:28:07;6.60;99.90
7117;DHT22;3600;48.568;7.870;2023-02-01T16:30:35;6.60;99.90
7117;DHT22;3600;48.568;7.870;2023-02-01T16:33:02;6.60;99.90
7117;DHT22;3600;48.568;7.870;2023-02-01T16:35:37;6.60;99.90
7117;DHT22;3600;48.568;7.870;2023-02-01T16:38:16;6.60;99.90
7117;DHT22;3600;48.568;7.870;2023-02-01T16:40:45;6.60;99.90
7117;DHT22;3600;48.568;7.870;2023-02-01T16:43:21;6.60;99.90
7117;DHT22;3600;48.568;7.870;2023-02-01T16:45:49;6.60;99.90
7117;DHT22;3600;48.568;7.870;2023-02-01T16:48:26;6.60;99.90
7117;DHT22;3600;48.568;7.870;2023-02-01T16:50:55;6.60;99.90
7117;DHT22;3600;48.568;7.870;2023-02-01T16:53:24;6.70;99.90
7117;DHT22;3600;48.568;7.870;2023-02-01T16:55:51;6.70;99.90
7117;DHT22;3600;48.568;7.870;2023-02-01T16:58:19;6.70;99.90
7117;DHT22;3600;48.568;7.870;2023-02-01T17:00:47;6.70;99.90
7117;DHT22;3600;48.568;7.870;2023-02-01T17:03:14;6.70;99.90
7117;DHT22;3600;48.568;7.870;2023-02-01T17:05:49;6.60;99.90
7117;DHT22;3600;48.568;7.870;2023-02-01T17:08:18;6.70;99.90
7117;DHT22;3600;48.568;7.870;2023-02-01T17:10:45;6.60;99.90
7117;DHT22;3600;48.568;7.870;2023-02-01T17:13:21;6.60;99.90
7117;DHT22;3600;48.568;7.870;2023-02-01T17:16:00;6.60;99.90
7117;DHT22;3600;48.568;7.870;2023-02-01T17:18:36;6.60;99.90
7117;DHT22;3600;48.568;7.870;2023-02-01T17:21:09;6.60;99.90
7117;DHT22;3600;48.568;7.870;2023-02-01T17:23:38;6.60;99.90
7117;DHT22;3600;48.568;7.870;2023-02-01T17:26:09;6.60;99.90
7117;DHT22;3600;48.568;7.870;2023-02-01T17:28:35;6.60;99.90
7117;DHT22;3600;48.568;7.870;2023-02-01T17:31:03;6.50;99.90
7117;DHT22;3600;48.568;7.870;2023-02-01T17:33:34;6.50;99.90
7117;DHT22;3600;48.568;7.870;2023-02-01T17:36:04;6.50;99.90
7117;DHT22;3600;48.568;7.870;2023-02-01T17:38:32;6.50;99.90
7117;DHT22;3600;48.568;7.870;2023-02-01T17:41:00;6.50;99.90
7117;DHT22;3600;48.568;7.870;2023-02-01T17:43:27;6.50;99.90
7117;DHT22;3600;48.568;7.870;2023-02-01T17:46:09;6.50;99.90
7117;DHT22;3600;48.568;7.870;2023-02-01T17:48:38;6.40;99.90
7117;DHT22;3600;48.568;7.870;2023-02-01T17:51:19;6.40;99.90
7117;DHT22;3600;48.568;7.870;2023-02-01T17:53:46;6.40;99.90
7117;DHT22;3600;48.568;7.870;2023-02-01T17:56:14;6.30;99.90
7117;DHT22;3600;48.568;7.870;2023-02-01T17:58:43;6.40;99.90
7117;DHT22;3600;48.568;7.870;2023-02-01T18:01:17;6.40;99.90
7117;DHT22;3600;48.568;7.870;2023-02-01T18:03:44;6.40;99.90
7117;DHT22;3600;48.568;7.870;2023-02-01T18:06:16;6.40;99.90
7117;DHT22;3600;48.568;7.870;2023-02-01T18:08:44;6.30;99.90
7117;DHT22;3600;48.568;7.870;2023-02-01T18:11:13;6.30;99.90
7117;DHT22;3600;48.568;7.870;2023-02-01T18:13:41;6.30;99.90
7117;DHT22;3600;48.568;7.870;2023-02-01T18:16:19;6.40;99.90
7117;DHT22;3600;48.568;7.870;2023-02-01T18:18:47;6.40;99.90
7117;DHT22;3600;48.568;7.870;2023-02-01T18:21:18;6.40;99.90
7117;DHT22;3600;48.568;7.870;2023-02-01T18:23:45;6.40;99.90
7117;DHT22;3600;48.568;7.870;2023-02-01T18:26:14;6.40;99.90
7117;DHT22;3600;48.568;7.870;2023-02-01T18:28:42;6.40;99.90
7117;DHT22;3600;48.568;7.870;2023-02-01T18:33:49;6.40;99.90
7117;DHT22;3600;48.568;7.870;2023-02-01T18:36:16;6.40;99.90
7117;DHT22;3600;48.568;7.870;2023-02-01T18:38:43;6.50;99.90
7117;DHT22;3600;48.568;7.870;2023-02-01T18:41:17;6.50;99.90
7117;DHT22;3600;48.568;7.870;2023-02-01T18:43:47;6.50;99.90
7117;DHT22;3600;48.568;7.870;2023-02-01T18:46:14;6.50;99.90
7117;DHT22;3600;48.568;7.870;2023-02-01T18:48:41;6.50;99.90
7117;DHT22;3600;48.568;7.870;2023-02-01T18:51:13;6.60;99.90
7117;DHT22;3600;48.568;7.870;2023-02-01T18:53:42;6.60;99.90
7117;DHT22;3600;48.568;7.870;2023-02-01T18:56:14;6.60;99.90
7117;DHT22;3600;48.568;7.870;2023-02-01T18:58:41;6.60;99.90
7117;DHT22;3600;48.568;7.870;2023-02-01T19:01:15;6.60;99.90
7117;DHT22;3600;48.568;7.870;2023-02-01T19:03:44;6.60;99.90
7117;DHT22;3600;48.568;7.870;2023-02-01T19:06:14;6.60;99.90
7117;DHT22;3600;48.568;7.870;2023-02-01T19:08:44;6.60;99.90